Tiempo atmosférico en la estación meteorológica de Logroño Aeropuerto, La Rioja (353 m.)



Fecha
DESCASC
Temp. máxima en grados centígrados (hora)
DESCASC
Temp. mínima en grados centígrados (hora)
DESCASC
Temp. media en grados centígrados
DESCASC
Racha de viento máxima en m/sg (hora)
DESCASC
Velocidad máxima media en intervalos de 10 minutos(hora)
DESCASC
Precipitaciones diarias en mm
DESCASC
Precipitaciones de 00:00 a 06:00 en mm
DESCASC
Precipitaciones de 06:00 a 12:00 en mm
DESCASC
Precipitaciones de 12:00 a 18:00 en mm
DESCASC
Precipitaciones de 18:00 a 24:00 en mm
DESCASC
06-07-2020 25.7 (14:50) 15.8 (23:59) 20.8 9.72 (15:50) 5 (09:00) 0 0 0 0 0
05-07-2020 33.1 (17:40) 15.8 (06:50) 24.4 6.67 (09:40) 4.17 (09:40) 0 0 0 0 0
04-07-2020 30.2 (17:30) 10.5 (04:40) 20.4 8.33 (16:40) 4.44 (10:20) 0 0 0 0 0
03-07-2020 23.7 (16:50) 15.2 (07:20) 19.5 8.33 (10:50) 4.72 (20:30) 0 0 0 0 0
02-07-2020 25.3 (14:30) 16.8 (00:00) 21 8.89 (18:40) 4.72 (19:50) 0 0 0 0 0
01-07-2020 29.4 (16:00) 17.5 (00:00) 23.4 7.22 (15:50) 4.44 (16:00) 0 0 0 0 0
30-06-2020 32.6 (17:50) 14.5 (00:00) 23.5 9.17 (21:30) 6.11 (21:30) 0 0 0 0 0
29-06-2020 27.3 (15:20) 17.5 (00:00) 22.4 7.22 (18:20) 3.89 (19:10) 0 0 0 0 0
28-06-2020 31.3 (17:30) 16.9 (00:00) 24.1 7.22 (20:10) 4.17 (19:20) 0 0 0 0 0
27-06-2020 30.7 (18:40) 15.9 (00:00) 23.3 6.67 (11:40) 4.44 (14:00) 0 0 0 0 0
26-06-2020 31.7 (17:40) 16.8 (00:00) 24.3 10.28 (19:50) 7.22 (19:50) 0.2 0 0 0.2 0
25-06-2020 30.1 (17:10) 16.2 (00:00) 23.2 12.78 (18:50) 7.5 (18:50) 9.2 0.2 0 0.1 8.9
24-06-2020 35 (19:20) 19.6 (00:00) 27.3 12.78 (22:00) 9.72 (22:00) 0 0 0 0 0
23-06-2020 34.1 (18:00) 13 (00:00) 23.5 7.22 (15:00) 3.89 (18:10) 0 0 0 0 0
22-06-2020 31.1 (18:20) 14.9 (00:00) 23 7.78 (14:40) 3.61 (15:50) 0 0 0 0 0
21-06-2020 29.4 (16:50) 15 (00:00) 22.2 8.89 (18:30) 4.72 (20:10) 0 0 0 0 0
20-06-2020 30.6 (19:20) 13.4 (00:00) 22 8.33 (17:30) 3.89 (17:10) 0 0 0 0 0
19-06-2020 28 (19:40) 11 (00:00) 19.5 6.67 (21:10) 4.17 (21:20) 0 0 0 0 0
18-06-2020 23.7 (16:20) 12.1 (00:00) 17.9 5.83 (20:30) 4.17 (20:30) 0 0 0 0 0
17-06-2020 22.7 (16:50) 12.9 (00:00) 17.8 6.67 (18:10) 4.17 (19:30) 0.2 0.1 0.1 0 0
16-06-2020 24.1 (15:20) 13.8 (00:00) 19 10.28 (17:00) 4.44 (15:50) 7.5 0 0 3.3 4.2
15-06-2020 24.9 (17:50) 11.4 (00:00) 18.1 8.33 (13:20) 5 (14:00) 0 0 0 0 0
14-06-2020 23.5 (16:40) 12.1 (00:00) 17.8 6.67 (19:10) 3.89 (19:20) 0 0 0 0 0
13-06-2020 22.7 (19:10) 10.3 (00:00) 16.5 9.72 (16:30) 5.83 (16:00) 0.1 0 0 0.1 0
12-06-2020 21 (16:30) 6.9 (00:00) 14 8.89 (18:50) 4.17 (13:30) 3.8 0 0 2.8 1
11-06-2020 22.2 (16:10) 10.7 (00:00) 16.5 7.78 (15:50) 5 (15:50) 6.1 0 0 0.3 5.8
10-06-2020 21 (16:10) 11 (00:00) 16 6.11 (15:40) 3.61 (04:00) 0 0 0 0 0

Gráficas

Temp. máximas Temp. mínimas Temp. medias Precipitaciones Rachas de viento máximas Velocidades máximas media en intervalos de 10 minutos

Datos horarios

Fecha y hora oficial Temperatura (ºC) Velocidad del viento (km/h) Dirección del viento Racha (km/h) Dirección de racha Precipitación (mm) Presión (hPa) Tendencia (hPa) Humedad (%)
2020-07-09 23:00:00 21.8 9 Oeste 15 Sudoeste 0 975.4 1.6 65
2020-07-09 22:00:00 23.1 9 Oeste 24 Sudoeste 0 974.7 0.9 55
2020-07-09 21:00:00 23.9 12 Oeste 18 Oeste 0 973.6 1.1 53
2020-07-09 20:00:00 24.5 14 Oeste 41 Sudoeste 0 973.8 -- 51
2020-07-09 19:00:00 28.9 22 Sudoeste 32 Sudoeste 0 973.8 -- 36
2020-07-09 18:00:00 31.9 13 Este 30 Este 0 972.5 -- 31
2020-07-09 17:00:00 32.5 22 Este 32 Nordeste 0 972.8 -- 29
2020-07-09 16:00:00 34.2 16 Este 37 Este 0 973.6 -- 27
2020-07-09 15:00:00 32.7 12 Este 26 Este 0 974.2 -- 30
2020-07-09 14:00:00 30.7 12 Este 28 Este 0 974.9 -- 39
2020-07-09 13:00:00 29.5 12 Este 17 Este 0 975.4 -- 42
2020-07-09 12:00:00 27.3 4 Nordeste 15 Nordeste 0 975.5 -- 47
2020-07-09 11:00:00 24.7 5 Oeste 11 Noroeste 0 976.1 -- 56
2020-07-09 10:00:00 22 4 Oeste 13 Oeste 0 976.1 -- 67
2020-07-09 09:00:00 21.4 4 Oeste 11 Oeste 0 975.1 -- 72
2020-07-09 08:00:00 19.4 7 Oeste 13 Oeste 0 975 -- 79
2020-07-09 07:00:00 18.5 6 Sudoeste 9 Sur 0 975.3 -- 80
2020-07-09 06:00:00 19 6 Sudoeste 8 Sudoeste 0 974.9 -- 79
2020-07-09 05:00:00 19.5 5 Oeste 9 Sudoeste 0 974.4 -- 76
2020-07-09 04:00:00 20.3 0 Calma 8 Noroeste 0 974.5 -- 78
2020-07-09 03:00:00 21.9 0 Calma 17 Sudoeste 0 974.8 -- 69
2020-07-09 02:00:00 22.7 7 Oeste 18 Oeste 0 975.2 -- 68
2020-07-09 01:00:00 23.3 4 Oeste 11 Oeste 0 974.8 -- 66
2020-07-09 00:00:00 24.7 9 Oeste 18 Oeste 0 974.5 -- 61
2020-07-08 23:00:00 26.1 8 Oeste 21 Oeste 0 973.9 -- 55
2020-07-08 22:00:00 26.1 11 Sudoeste 15 Sudoeste 0 973.1 -- 47
2020-07-08 21:00:00 29.9 4 Nordeste 13 Nordeste 0 971.4 -- 35
2020-07-08 20:00:00 30.3 11 Este 28 Este 0 971.7 -- 32
2020-07-08 19:00:00 32 16 Este 22 Este 0 971.9 -- 27
2020-07-08 18:00:00 32.4 14 Este 24 Este 0 971.7 -- 27
2020-07-08 17:00:00 31.9 19 Este 30 Este 0 972.6 -- 27
2020-07-08 16:00:00 29.6 17 Este 26 Este 0 973.4 -- 29
2020-07-08 15:00:00 28.5 19 Este 26 Este 0 973.6 -- 32
2020-07-08 14:00:00 27.9 13 Este 22 Este 0 974.3 -- 37
2020-07-08 13:00:00 26.6 15 Este 26 Este 0 975.4 -- 44
2020-07-08 12:00:00 23.8 16 Este 28 Nordeste 0 975.2 -- 52
2020-07-08 11:00:00 23 9 Este 15 Nordeste 0 975.6 -- 53
2020-07-08 10:00:00 20.1 0 Calma 9 Sudoeste 0 975.6 -- 67
2020-07-08 09:00:00 17.5 8 Oeste 13 Oeste 0 976 -- 77
2020-07-08 08:00:00 15.6 2 Oeste 8 Oeste 0 975.6 -- 88
2020-07-08 07:00:00 14 0 Calma -- -- 0 975.3 -- 91
2020-07-08 06:00:00 14.6 0 Calma 9 Sudoeste 0 975 -- 85
2020-07-08 05:00:00 15.9 6 Sudoeste 9 Sudoeste 0 975 -- 83
2020-07-08 04:00:00 15.6 5 Oeste 8 Sudoeste 0 975.2 -- 82
2020-07-08 03:00:00 15.9 0 Calma -- -- 0 975.4 -- 86
2020-07-08 02:00:00 16.5 0 Calma 9 Sudeste 0 975.7 -- 78
2020-07-08 01:00:00 17.4 0 Calma 9 Este 0 975.7 -- 70
2020-07-08 00:00:00 18.6 6 Este 8 Este 0 975.5 -- 68
2020-07-07 23:00:00 21.1 0 Calma 11 Sudeste 0 974.9 -- 62
2020-07-07 22:00:00 24.6 8 Sudeste 11 Sudeste 0 974.1 -- 41
2020-07-07 21:00:00 28.6 6 Noroeste 15 Noroeste 0 973.6 -- 31
2020-07-07 20:00:00 29.5 6 Oeste 15 Noroeste 0 973.4 -0.8 26
2020-07-07 19:00:00 31.2 7 Noroeste 13 Noroeste 0 973.3 -1.4 26
2020-07-07 18:00:00 30.8 10 Noroeste 22 Norte 0 973.6 -1.7 24
2020-07-07 17:00:00 30.9 7 Oeste 22 Oeste 0 974.2 -1.8 22
2020-07-07 16:00:00 29.7 8 Noroeste 18 Sudoeste 0 974.7 -2 22
2020-07-07 15:00:00 27.6 11 Sudoeste 18 Sudoeste 0 975.3 -2.1 29
2020-07-07 14:00:00 25.6 12 Oeste 22 Oeste 0 976 -1.8 25
2020-07-07 13:00:00 23.3 12 Oeste 24 Oeste 0 976.7 -1.6 35
2020-07-07 12:00:00 21 15 Oeste 22 Oeste 0 977.4 -1.2 44
2020-07-07 11:00:00 18.6 14 Oeste 22 Oeste 0 977.8 -0.8 53
2020-07-07 10:00:00 17.3 11 Oeste 22 Oeste 0 978.3 -0.3 59
2020-07-07 09:00:00 15.1 14 Oeste 24 Oeste 0 978.6 -0.2 68
2020-07-07 08:00:00 13.5 11 Oeste 18 Sudoeste 0 978.6 -0.3 75
2020-07-07 07:00:00 12.1 11 Oeste 18 Oeste 0 978.6 -- 81
2020-07-07 06:00:00 12.6 11 Oeste 18 Oeste 0 978.8 -- 79
2020-07-07 05:00:00 12.9 13 Oeste 22 Oeste 0 978.9 -- 80
2020-07-07 04:00:00 13.3 14 Oeste 21 Oeste 0 979.3 -- 80
2020-07-07 03:00:00 13.8 12 Oeste 17 Oeste 0 979.6 -- 80
2020-07-07 02:00:00 14.5 11 Oeste 18 Oeste 0 979.9 -- 75
2020-07-07 01:00:00 15 9 Oeste 26 Oeste 0 980.3 -- 72
2020-07-07 00:00:00 15.9 11 Oeste 17 Sudoeste 0 980.7 -- 69
2020-07-06 23:00:00 16.9 12 Oeste 22 Oeste 0 980.6 -- 65
2020-07-06 22:00:00 18.1 8 Oeste 28 Oeste 0 979.9 -- 63
2020-07-06 21:00:00 20.4 14 Noroeste 30 Noroeste 0 979.8 -- 57
2020-07-06 20:00:00 21.7 16 Noroeste 32 Noroeste 0 979.9 -- 54
2020-07-06 19:00:00 22.8 13 Noroeste 33 Norte 0 979.9 -- 54
2020-07-06 18:00:00 23.5 18 Norte 33 Norte 0 980.1 -- 51
2020-07-06 17:00:00 24.3 17 Noroeste 35 Oeste 0 979.9 -- 50
2020-07-06 16:00:00 25 14 Noroeste 35 Noroeste 0 979.9 -- 48
2020-07-06 15:00:00 25.2 14 Oeste 26 Oeste 0 979.8 -- 49
2020-07-06 14:00:00 24.5 12 Oeste 28 Oeste 0 980.2 -- 51
2020-07-06 13:00:00 23.2 13 Oeste 26 Noroeste 0 980.3 -- 59
2020-07-06 12:00:00 22.7 14 Oeste 24 Sudoeste 0 980.3 -- 63
2020-07-06 11:00:00 21.2 12 Oeste 22 Oeste 0 980.3 -- 68
2020-07-06 10:00:00 20.6 13 Oeste 26 Oeste 0 980.5 -- 69
2020-07-06 09:00:00 19.1 18 Oeste 30 Oeste 0 980.6 -- 73
2020-07-06 08:00:00 18.4 13 Oeste 26 Oeste 0 980.3 -- 77
2020-07-06 07:00:00 17.5 13 Oeste 22 Oeste 0 979.9 -- 80
2020-07-06 06:00:00 17.2 11 Oeste 21 Oeste 0 979.7 -- 79
2020-07-06 05:00:00 17.5 15 Oeste 22 Oeste 0 979.7 -- 74
2020-07-06 04:00:00 18.2 12 Oeste 22 Oeste 0 979.6 -- 63
2020-07-06 03:00:00 19.3 10 Oeste 17 Oeste 0 979.8 -- 64
2020-07-06 02:00:00 20.2 8 Oeste 17 Oeste 0 979.8 -- 66
2020-07-06 01:00:00 21 7 Oeste 15 Oeste 0 979.8 -- 63
2020-07-06 00:00:00 22.1 11 Oeste 24 Oeste 0 979.2 -- 57
2020-07-05 23:00:00 23 12 Oeste 17 Oeste 0 978.8 -- 56
2020-07-05 22:00:00 25 8 Noroeste 18 Norte 0 977.8 -- 49
2020-07-05 21:00:00 28.8 6 Noroeste 22 Noroeste 0 977.2 -- 37
2020-07-05 20:00:00 30.5 10 Noroeste 22 Norte 0 976.6 -- 34
2020-07-05 19:00:00 31.9 10 Noroeste 22 Noroeste 0 976.3 -- 31
2020-07-05 18:00:00 32.7 10 Noroeste 21 Noroeste 0 976.6 -- 30
2020-07-05 17:00:00 32.5 12 Oeste 24 Sudoeste 0 976.9 -- 29
2020-07-05 16:00:00 32.2 11 Oeste 21 Oeste 0 977.4 -- 29
2020-07-05 15:00:00 31 13 Oeste 21 Oeste 0 978 -- 30
2020-07-05 14:00:00 29.7 12 Oeste 22 Oeste 0 978.7 -- 31
2020-07-05 13:00:00 28.5 8 Oeste 18 Oeste 0 979.6 -- 33
2020-07-05 12:00:00 26.5 12 Oeste 22 Sudoeste 0 980 -- 37
2020-07-05 11:00:00 24.1 13 Oeste 22 Oeste 0 980.5 -- 40
2020-07-05 10:00:00 21.9 14 Oeste 24 Oeste 0 980.8 -- 46
2020-07-05 09:00:00 19.3 12 Oeste 18 Oeste 0 980.7 -- 55
2020-07-05 08:00:00 17.4 13 Oeste 18 Oeste 0 980.6 -- 60
2020-07-05 07:00:00 15.9 12 Oeste 15 Sudoeste 0 980.5 -- 63
2020-07-05 06:00:00 16.4 10 Oeste 21 Oeste 0 980.4 -- 63
2020-07-05 05:00:00 16.7 10 Oeste 15 Oeste 0 980.5 -- 60
2020-07-05 04:00:00 17.1 8 Oeste 13 Oeste 0 980.8 -- 61
2020-07-05 03:00:00 17.7 9 Oeste 15 Oeste 0 981.4 -- 60
2020-07-05 02:00:00 17.4 2 Oeste 8 Oeste 0 981.9 -- 66
2020-07-05 01:00:00 18.8 2 Oeste 13 Oeste 0 982 -- 62
2020-07-05 00:00:00 21 3 Oeste 15 Sudoeste 0 981.9 -- 45
2020-07-04 23:00:00 21.7 9 Oeste 17 Oeste 0 981.5 -- 47
2020-07-04 22:00:00 23.8 8 Sudoeste 13 Sudoeste 0 980.7 -- 43
2020-07-04 21:00:00 26.7 8 Noroeste 18 Norte 0 980.2 -- 34
2020-07-04 20:00:00 28.1 11 Noroeste 21 Noroeste 0 979.6 -- 29
2020-07-04 19:00:00 28.9 11 Noroeste 24 Noroeste 0 979.4 -- 24
2020-07-04 18:00:00 29.4 13 Noroeste 30 Norte 0 979.6 -- 20
2020-07-04 17:00:00 30 7 Oeste 30 Norte 0 979.7 -- 19
2020-07-04 16:00:00 29 7 Noroeste 26 Oeste 0 980.1 -- 23
2020-07-04 15:00:00 27.5 15 Oeste 24 Sudoeste 0 980.4 -- 24
2020-07-04 14:00:00 26.1 10 Oeste 21 Oeste 0 981.1 -- 26
2020-07-04 13:00:00 24.6 13 Oeste 22 Oeste 0 981.4 -- 29
2020-07-04 12:00:00 22 15 Oeste 28 Oeste 0 981.6 -- 37
2020-07-04 11:00:00 19.5 16 Oeste 26 Oeste 0 981.6 -- 54
2020-07-04 10:00:00 17.1 15 Oeste 24 Oeste 0 981.9 -- 65
2020-07-04 09:00:00 14.8 14 Oeste 22 Oeste 0 982 -- 73
2020-07-04 08:00:00 13 10 Oeste 17 Oeste 0 982.1 -- 80
2020-07-04 07:00:00 11.8 8 Oeste 15 Oeste 0 981.9 -- 86
2020-07-04 06:00:00 11.4 7 Oeste 13 Oeste 0 981.7 -- 92
2020-07-04 05:00:00 11.5 4 Oeste 11 Oeste 0 981.8 -- 91
2020-07-04 04:00:00 11.8 6 Oeste 9 Oeste 0 982.1 -- 88
2020-07-04 03:00:00 12.3 0 Calma 5 Este 0 982.3 -- 87
2020-07-04 02:00:00 12.6 0 Calma 9 Oeste 0 982.4 -- 77
2020-07-04 01:00:00 14.9 8 Oeste 13 Oeste 0 982.3 -- 69
2020-07-04 00:00:00 16.1 9 Oeste 17 Sudoeste 0 982.3 -- 63
2020-07-03 23:00:00 16.7 10 Sudoeste 17 Oeste 0 981.9 -- 62
2020-07-03 22:00:00 18 7 Oeste 28 Noroeste 0 980.7 -- 57
2020-07-03 21:00:00 20.6 12 Noroeste 28 Norte 0 980.2 -- 48
2020-07-03 20:00:00 22.4 11 Noroeste 24 Norte 0 979.5 -- 42
2020-07-03 19:00:00 23.2 9 Noroeste 30 Norte 0 979.5 -- 40
2020-07-03 18:00:00 23.5 12 Oeste 24 Oeste 0 979.5 -- 39
2020-07-03 17:00:00 23.4 14 Noroeste 26 Noroeste 0 979.7 -- 39
2020-07-03 16:00:00 23.4 12 Noroeste 24 Noroeste 0 980 -- 39
2020-07-03 15:00:00 23.3 10 Noroeste 26 Oeste 0 980.3 -- 38
2020-07-03 14:00:00 21.9 13 Oeste 24 Noroeste 0 980.8 -- 42
2020-07-03 13:00:00 20.7 15 Oeste 26 Oeste 0 981.1 -- 44
2020-07-03 12:00:00 19.6 11 Oeste 24 Oeste 0 981.1 -- 49
2020-07-03 11:00:00 18.5 12 Oeste 30 Sudoeste 0 981.1 -- 55
2020-07-03 10:00:00 17.2 9 Noroeste 18 Noroeste 0 981.1 -- 60
2020-07-03 09:00:00 15.8 7 Oeste 13 Oeste 0 981.2 -- 71
2020-07-03 08:00:00 15.2 6 Oeste 18 Noroeste 0 980.9 -- 75
2020-07-03 07:00:00 15.4 6 Oeste 17 Oeste 0 980.6 -- 77
2020-07-03 06:00:00 15.7 5 Oeste 13 Oeste 0 980.4 -- 72
2020-07-03 05:00:00 15.8 8 Oeste 13 Oeste 0 980.3 -- 72
2020-07-03 04:00:00 15.8 9 Oeste 18 Oeste 0 980.4 -- 73
2020-07-03 03:00:00 16.2 8 Oeste 13 Sudoeste 0 980.5 -- 72
2020-07-03 02:00:00 16.2 6 Oeste 17 Noroeste 0 980.5 -- 73
2020-07-03 01:00:00 16.4 9 Noroeste 22 Oeste 0 980.4 -- 73
2020-07-03 00:00:00 16.9 8 Oeste 13 Oeste 0 980 -- 69
2020-07-02 23:00:00 17 9 Oeste 13 Oeste 0 979.7 -- 68
2020-07-02 22:00:00 17.1 7 Oeste 13 Norte 0 978.9 -- 68
2020-07-02 21:00:00 17.5 9 Noroeste 18 Noroeste 0 978.4 -- 67
2020-07-02 20:00:00 18 12 Noroeste 28 Norte 0 977.7 -- 68
2020-07-02 19:00:00 19.3 13 Noroeste 32 Noroeste 0 976.7 -- 64
2020-07-02 18:00:00 21.4 17 Norte 28 Norte 0 975.8 -- 58
2020-07-02 17:00:00 22.9 13 Noroeste 30 Noroeste 0 975.6 -- 55
2020-07-02 16:00:00 22.5 9 Oeste 28 Oeste 0 975.6 -- 56
2020-07-02 15:00:00 24 12 Oeste 26 Oeste 0 975.4 -- 53
2020-07-02 14:00:00 23.6 14 Noroeste 26 Oeste 0 975.6 -- 53
2020-07-02 13:00:00 23.5 14 Oeste 24 Sudoeste 0 975.5 -- 54
2020-07-02 12:00:00 21.2 12 Oeste 18 Sudoeste 0 975.7 -- 65
2020-07-02 11:00:00 21 8 Noroeste 17 Noroeste 0 975.4 -- 63
2020-07-02 10:00:00 19.9 7 Oeste 18 Oeste 0 975.3 -- 72
2020-07-02 09:00:00 19.3 8 Oeste 17 Sudoeste 0 974.8 -- 75
2020-07-02 08:00:00 18.9 5 Oeste 13 Oeste 0 974.2 -- 74
2020-07-02 07:00:00 18.8 5 Oeste 11 Sudoeste 0 973.9 -- 74
2020-07-02 06:00:00 19.2 4 Oeste 9 Sudoeste 0 973.6 -- 76
2020-07-02 05:00:00 19.5 2 Oeste 8 Oeste 0 973.6 -- 76
2020-07-02 04:00:00 19.8 3 Oeste 5 Oeste 0 973.5 -- 74
2020-07-02 03:00:00 20.1 0 Calma 8 Sudoeste 0 973.8 -- 71
2020-07-02 02:00:00 20.5 5 Oeste 9 Oeste 0 974.2 -- 71
2020-07-02 01:00:00 20.8 0 Calma 9 Oeste 0 974.2 -- 69
2020-07-02 00:00:00 21 4 Oeste 11 Oeste 0 974.2 -- 68
2020-07-01 23:00:00 21.3 6 Oeste 13 Oeste 0 973.8 -- 67
2020-07-01 22:00:00 21.9 4 Noroeste 17 Oeste 0 972.9 -- 66
2020-07-01 21:00:00 23.2 7 Oeste 18 Oeste 0 972.3 -- 62
2020-07-01 20:00:00 24.8 8 Oeste 21 Noroeste 0 971.9 -- 57
2020-07-01 19:00:00 26.1 8 Nordeste 17 Nordeste 0 970.9 -- 54
2020-07-01 18:00:00 26.6 4 Nordeste 18 Noroeste 0 970.4 -- 57
2020-07-01 17:00:00 28.7 11 Noroeste 26 Norte 0 970.4 -- 47
2020-07-01 16:00:00 29.3 16 Norte 26 Norte 0 970.6 -- 45
2020-07-01 15:00:00 29.1 10 Noroeste 24 Norte 0 970.6 -- 47
2020-07-01 14:00:00 28.6 9 Noroeste 21 Noroeste 0 970.5 -- 48
2020-07-01 13:00:00 27.1 9 Oeste 17 Oeste 0 970.7 -- 52
2020-07-01 12:00:00 25.8 11 Oeste 15 Oeste 0 971 -- 56
2020-07-01 11:00:00 24.1 12 Oeste 21 Sudoeste 0 971 -- 60
2020-07-01 10:00:00 22.2 13 Oeste 22 Oeste 0 971.2 -- 66
2020-07-01 09:00:00 20.8 9 Oeste 15 Oeste 0 970.7 -- 72
2020-07-01 08:00:00 18.9 10 Oeste 17 Oeste 0 970.3 -- 80
2020-07-01 07:00:00 17.9 9 Oeste 13 Oeste 0 969.9 -- 91
2020-07-01 06:00:00 17.6 0 Calma 5 Sudoeste 0 969.5 -- 94
2020-07-01 05:00:00 18.5 0 Calma 8 Sudoeste 0 969.3 -- 90
2020-07-01 04:00:00 20.1 5 Oeste 11 Oeste 0 969.5 -- 82
2020-07-01 03:00:00 20.9 7 Oeste 9 Sudoeste 0 969.7 -- 80
2020-07-01 02:00:00 22.6 6 Oeste 21 Sur 0 969.8 -- 70
2020-07-01 01:00:00 22.7 7 Sudoeste 15 Este 0 969.8 -- 63
2020-07-01 00:00:00 23 7 Este 28 Este 0 969.6 -- 63
2020-06-30 23:00:00 24.3 6 Nordeste 24 Sudoeste 0 969.4 -- 58
2020-06-30 22:00:00 23.5 3 Sur 33 Sur 0 968.3 -- 72
2020-06-30 21:00:00 24.7 3 Sudoeste 30 Sur 0 969.1 -- 64
2020-06-30 20:00:00 25.6 22 Sur 32 Sur 0 969.5 -- 60
2020-06-30 19:00:00 28.4 18 Sudeste 30 Sudeste 0 968.9 -- 41
2020-06-30 18:00:00 32.2 11 Este 24 Este 0 969.1 -- 28
2020-06-30 17:00:00 31.6 10 Este 21 Este 0 969.9 -- 30
2020-06-30 16:00:00 30.6 9 Este 21 Este 0 970.4 -- 30
2020-06-30 15:00:00 29.6 10 Este 21 Este 0 971.3 -- 29
2020-06-30 14:00:00 28.4 9 Este 18 Este 0 971.9 -- 33
2020-06-30 13:00:00 26.7 8 Este 22 Este 0 972.6 -- 31
2020-06-30 12:00:00 24.1 0 Calma 9 Oeste 0 973.2 -- 41
2020-06-30 11:00:00 21.9 4 Oeste 11 Oeste 0 973.6 -- 56
2020-06-30 10:00:00 19.3 8 Oeste 15 Oeste 0 974.3 -- 70
2020-06-30 09:00:00 17.4 10 Oeste 17 Oeste 0 974.6 -- 77
2020-06-30 08:00:00 16.3 4 Oeste 11 Oeste 0 974.5 -- 82
2020-06-30 07:00:00 14.6 5 Oeste 11 Oeste 0 974.5 -- 89
2020-06-30 06:00:00 15 7 Oeste 15 Oeste 0 974.3 -- 88
2020-06-30 05:00:00 15.1 9 Oeste 13 Oeste 0 974.5 -- 89
2020-06-30 04:00:00 15.3 8 Oeste 11 Oeste 0 974.9 -- 89
2020-06-30 03:00:00 15.3 6 Oeste 9 Oeste 0 975.5 -- 88
2020-06-30 02:00:00 16 0 Calma 8 Oeste 0 976.2 -- 85
2020-06-30 01:00:00 16.6 0 Calma 8 Oeste 0 976.4 -- 83
2020-06-30 00:00:00 17.6 6 Oeste 11 Oeste 0 976.4 -- 78
2020-06-29 23:00:00 18.8 0 Calma 11 Noroeste 0 976.3 -- 74
2020-06-29 22:00:00 20.6 3 Norte 9 Norte 0 975.7 -- 65
2020-06-29 21:00:00 22.9 8 Noroeste 21 Norte 0 975.5 -- 58
2020-06-29 20:00:00 24.1 9 Noroeste 24 Norte 0 975.3 -- 56
2020-06-29 19:00:00 24.2 12 Noroeste 26 Norte 0 975.2 -- 57
2020-06-29 18:00:00 25 9 Noroeste 21 Norte 0 975.2 -- 56
2020-06-29 17:00:00 25 12 Oeste 22 Oeste 0 975.3 -- 56
2020-06-29 16:00:00 25.5 12 Oeste 22 Oeste 0 975.6 -- 54
2020-06-29 15:00:00 26.4 12 Oeste 21 Oeste 0 975.9 -- 51
2020-06-29 14:00:00 25.3 12 Oeste 21 Oeste 0 976.6 -- 53
2020-06-29 13:00:00 24.5 4 Oeste 17 Oeste 0 977.1 -- 55
2020-06-29 12:00:00 23 3 Noroeste 11 Sudoeste 0 977.4 -- 62
2020-06-29 11:00:00 21.8 7 Oeste 11 Sudoeste 0 977.4 -- 67
2020-06-29 10:00:00 21.9 4 Este 9 Nordeste 0 977.5 -- 64
2020-06-29 09:00:00 20.9 0 Calma 8 Noroeste 0 977.4 -- 70
2020-06-29 08:00:00 20 2 Noroeste 13 Oeste 0 977.2 -- 74
2020-06-29 07:00:00 19.6 5 Oeste 13 Oeste 0 976.9 -- 75
2020-06-29 06:00:00 20 8 Oeste 15 Oeste 0 976.7 -- 74
2020-06-29 05:00:00 20.4 9 Oeste 15 Oeste 0 976.7 -- 72
2020-06-29 04:00:00 20.5 7 Oeste 15 Oeste 0 976.9 -- 70
2020-06-29 03:00:00 20.5 9 Oeste 15 Oeste 0 977 -- 71
2020-06-29 02:00:00 20.9 10 Oeste 18 Sudoeste 0 977.4 -- 70
2020-06-29 01:00:00 21 10 Oeste 15 Noroeste 0 977.7 -- 69
2020-06-29 00:00:00 21.3 7 Oeste 15 Sudoeste 0 977.5 -- 68
2020-06-28 23:00:00 21.8 9 Oeste 21 Oeste 0 977 -- 66
2020-06-28 22:00:00 23.3 5 Oeste 13 Oeste 0 976.1 -- 62
2020-06-28 21:00:00 26.3 11 Norte 26 Norte 0 975 -- 53
2020-06-28 20:00:00 29 12 Norte 24 Norte 0 974.3 -- 42
2020-06-28 19:00:00 30.8 12 Norte 24 Norte 0 973.8 -- 38
2020-06-28 18:00:00 30.9 12 Norte 24 Norte 0 974 -- 36
2020-06-28 17:00:00 30.6 9 Oeste 18 Sudoeste 0 974.4 -- 36
2020-06-28 16:00:00 30.4 9 Oeste 22 Oeste 0 974.8 -1.5 38
2020-06-28 15:00:00 28.9 14 Oeste 22 Noroeste 0 975.3 -- 42
2020-06-28 14:00:00 27.6 12 Oeste 24 Sudoeste 0 975.7 -- 46
2020-06-28 13:00:00 26.6 14 Oeste 24 Oeste 0 976.3 -- 49
2020-06-28 12:00:00 25.1 7 Oeste 13 Oeste 0 976.8 -- 55
2020-06-28 11:00:00 23 10 Sudoeste 17 Oeste 0 977 -- 64
2020-06-28 10:00:00 21.4 10 Oeste 18 Noroeste 0 977 -- 71
2020-06-28 09:00:00 19.7 9 Oeste 17 Noroeste 0 977 -- 77
2020-06-28 08:00:00 18.4 7 Oeste 13 Oeste 0 976.6 -- 83
2020-06-28 07:00:00 16.9 7 Oeste 13 Noroeste 0 976.3 -- 88
2020-06-28 06:00:00 17.2 7 Oeste 13 Oeste 0 976 -- 87
2020-06-28 05:00:00 17.7 7 Oeste 11 Oeste 0 975.9 -- 84
2020-06-28 04:00:00 18.4 0 Calma 9 Oeste 0 975.7 -- 82
2020-06-28 03:00:00 19.5 7 Oeste 13 Oeste 0 975.6 -- 76
2020-06-28 02:00:00 20 5 Oeste 11 Sudoeste 0 975.5 -- 78
2020-06-28 01:00:00 20.5 3 Sudoeste 8 Sudoeste 0 975.3 -- 79
2020-06-28 00:00:00 21.1 0 Calma 5 Este 0 974.8 -- 83
2020-06-27 23:00:00 23 5 Sudeste 11 Este 0 974.4 -- 68
2020-06-27 22:00:00 24.7 7 Este 15 Este 0 973.4 -- 62
2020-06-27 21:00:00 27 0 Calma 5 Noroeste 0 972.9 -- 53
2020-06-27 20:00:00 28.6 2 Norte 13 Norte 0 972.7 -- 42
2020-06-27 19:00:00 29.7 5 Oeste 17 Oeste 0 972.6 -- 36
2020-06-27 18:00:00 29.9 5 Oeste 24 Oeste 0 972.8 -- 37
2020-06-27 17:00:00 29.9 8 Oeste 21 Norte 0 972.9 -- 36
2020-06-27 16:00:00 29.6 9 Oeste 18 Noroeste 0 973.2 -- 37
2020-06-27 15:00:00 28.8 6 Norte 21 Oeste 0 973.5 -- 39
2020-06-27 14:00:00 27.4 16 Oeste 24 Oeste 0 973.9 -- 43
2020-06-27 13:00:00 26.5 9 Oeste 21 Oeste 0 974.2 -- 47
2020-06-27 12:00:00 24.9 13 Oeste 24 Oeste 0 974.2 -- 50
2020-06-27 11:00:00 23.4 11 Oeste 17 Oeste 0 974.1 -- 55
2020-06-27 10:00:00 21.4 4 Oeste 13 Oeste 0 974.1 -- 67
2020-06-27 09:00:00 19.1 4 Noroeste 13 Oeste 0 974 -- 78
2020-06-27 08:00:00 17.8 0 Calma 9 Oeste 0 973.8 -- 83
2020-06-27 07:00:00 15.9 6 Oeste 13 Oeste 0 973.6 -- 94
2020-06-27 06:00:00 16.2 12 Oeste 18 Oeste 0 973.3 -- 93
2020-06-27 05:00:00 16.4 7 Sudoeste 11 Oeste 0 973.2 -- 93
2020-06-27 04:00:00 16.8 8 Sudoeste -- -- 0 972.8 -- 92
2020-06-27 03:00:00 17.7 8 Oeste 11 Sudoeste 0 972.9 -- 88
2020-06-27 02:00:00 18.3 4 Oeste 11 Oeste 0 972.8 -- 87
2020-06-27 01:00:00 18.2 4 Oeste 9 Oeste 0 972.3 -- 94
2020-06-27 00:00:00 18.9 0 Calma 11 Nordeste 0 972 -- 85
2020-06-26 23:00:00 20.6 14 Sudeste 17 Sudeste 0 971.8 -- 77
2020-06-26 22:00:00 20.9 8 Este 24 Este 0 970.9 -- 76
2020-06-26 21:00:00 23 21 Este 26 Nordeste 0 971 -- 64
2020-06-26 20:00:00 25.8 21 Este 37 Sudeste 0 969.6 -- 50
2020-06-26 19:00:00 28.5 21 Este 32 Este 0 968.8 -- 42
2020-06-26 18:00:00 30.3 20 Este 26 Este 0 969 -- 35
2020-06-26 17:00:00 30.7 18 Este 26 Este 0 969 -- 36
2020-06-26 16:00:00 29.7 15 Nordeste 28 Este 0.2 969.7 -- 38
2020-06-26 15:00:00 27.2 15 Este 24 Este 0 970.4 -- 47
2020-06-26 14:00:00 27.4 14 Nordeste 28 Este 0 970.7 -- 51
2020-06-26 13:00:00 26.6 14 Nordeste 28 Este 0 971.2 -- 56
2020-06-26 12:00:00 24.3 18 Este 26 Este 0 971.6 -- 64
2020-06-26 11:00:00 21.7 18 Este 30 Este 0 972.1 -- 72
2020-06-26 10:00:00 21.6 20 Este 28 Nordeste 0 972.3 -- 75
2020-06-26 09:00:00 20.1 18 Este 26 Este 0 972.2 -- 85
2020-06-26 08:00:00 18.5 10 Este 15 Este 0 972.3 -- 91
2020-06-26 07:00:00 17.6 9 Este 18 Este 0 972.4 -- 94
2020-06-26 06:00:00 17.4 12 Este 13 Este 0 972.5 -- 97
2020-06-26 05:00:00 17.6 9 Este 17 Este 0 972.9 -- 96
2020-06-26 04:00:00 17.2 14 Este 17 Este 0 973 -- 98
2020-06-26 03:00:00 17.2 10 Este 15 Este 0 973.1 -- 98
2020-06-26 02:00:00 17.7 8 Este 13 Este 0 973.6 -- 97
2020-06-26 01:00:00 18.3 0 Calma 11 Este 0 973.5 -- 96
2020-06-26 00:00:00 18.9 9 Nordeste 15 Nordeste 0.1 973.7 -- 93
2020-06-25 23:00:00 19.6 9 Este 24 Nordeste 0.5 973.6 -- 93
2020-06-25 22:00:00 19.9 12 Nordeste 21 Este 0.1 974 -- 90
2020-06-25 21:00:00 20.9 21 Sudeste 39 Sur 0 971.8 -- 79
2020-06-25 20:00:00 20 11 Sur 24 Sudoeste 2.8 974 -- 92
2020-06-25 19:00:00 21.3 15 Sur 46 Sur 5.4 973.9 -- 82
2020-06-25 18:00:00 27 10 Noroeste 21 Noroeste 0 971.1 -- 52
2020-06-25 17:00:00 29.3 7 Nordeste 21 Nordeste 0 971.9 -- 43
2020-06-25 16:00:00 28.4 12 Nordeste 18 Sudeste 0 972 -- 47
2020-06-25 15:00:00 24.4 8 Sudeste 28 Sudeste 0 972.6 -- 65
2020-06-25 14:00:00 23.4 4 Nordeste 21 Sudoeste 0.1 973.8 -- 78
2020-06-25 13:00:00 25.5 8 Oeste 17 Este 0 974.7 -- 59
2020-06-25 12:00:00 27.8 13 Este 32 Este 0 974.1 -- 43
2020-06-25 11:00:00 25.9 21 Este 28 Este 0 973.5 -- 51
2020-06-25 10:00:00 23.8 15 Este 22 Este 0 973.9 -- 58
2020-06-25 09:00:00 21.6 10 Este 13 Este 0 974.1 -- 65
2020-06-25 08:00:00 18.3 0 Calma 9 Nordeste 0 974.1 -- 81
2020-06-25 07:00:00 16.3 3 Este 9 Nordeste 0 974 -- 86
2020-06-25 06:00:00 16.6 8 Nordeste 13 Este 0.1 974 -- 87
2020-06-25 05:00:00 17.3 0 Calma 9 Este 0 974.4 -- 87
2020-06-25 04:00:00 19.2 0 Calma 8 Oeste 0 974.7 -- 81
2020-06-25 03:00:00 20.3 3 Sudoeste 15 Sudeste 0 974.4 -- 73
2020-06-25 02:00:00 21.9 9 Este 15 Noroeste 0 974.7 -- 64
2020-06-25 01:00:00 22.2 4 Sudeste 13 Este 0.1 975.6 -- 63
2020-06-25 00:00:00 22.5 9 Este 21 Nordeste 0 975.4 -- 64
2020-06-24 23:00:00 24.6 16 Nordeste 41 Nordeste 0 975.5 -- 51
2020-06-24 22:00:00 27.3 35 Este 46 Este 0 973.7 -- 40
2020-06-24 21:00:00 31.1 8 Noroeste 18 Oeste 0 972.3 -- 34
2020-06-24 20:00:00 33 0 Calma 11 Este 0 971.3 -- 39
2020-06-24 19:00:00 34.6 0 Calma 11 Nordeste 0 971.4 -- 26
2020-06-24 18:00:00 33.8 5 Nordeste 18 Nordeste 0 971.5 -- 29
2020-06-24 17:00:00 32.2 11 Nordeste 21 Este 0 972.1 -- 34
2020-06-24 16:00:00 29.9 15 Este 18 Este 0 972.9 -- 42
2020-06-24 15:00:00 29.1 14 Sudeste 21 Sudeste 0 973.3 -- 46
2020-06-24 14:00:00 27.7 3 Este 11 Este 0 973.7 -- 51
2020-06-24 13:00:00 27.5 5 Este 17 Este 0 973.9 -- 53
2020-06-24 12:00:00 27.1 4 Nordeste 18 Este 0 974.3 -- 52
2020-06-24 11:00:00 26.6 13 Este 35 Este 0 974.8 -- 52
2020-06-24 10:00:00 24 14 Este 21 Este 0 974.5 -- 63
2020-06-24 09:00:00 22.4 13 Nordeste 24 Nordeste 0 974.4 -- 68
2020-06-24 08:00:00 19.8 4 Este 9 Este 0 974.4 -- 79
2020-06-24 07:00:00 19.8 5 Este 11 Este 0 974 -- 77
2020-06-24 06:00:00 20.7 8 Este 9 Este 0 973.9 -- 74
2020-06-24 05:00:00 21.5 6 Este 11 Este 0 973.6 -- 69
2020-06-24 04:00:00 22 4 Este 17 Este 0 973.4 -- 65
2020-06-24 03:00:00 22.7 7 Este 11 Este 0 973.2 -- 62
2020-06-24 02:00:00 23.9 10 Este 21 Este 0 973.2 -- 54
2020-06-24 01:00:00 27.1 4 Oeste 41 Sudoeste 0 972.9 -- 36
2020-06-24 00:00:00 28.1 9 Sudoeste 22 Sudoeste 0 973.5 -- 39
2020-06-23 23:00:00 26.4 2 Norte 18 Sur 0 973.2 -- 46
2020-06-23 22:00:00 29.6 11 Sudeste 18 Sudeste 0 972 -- 37
2020-06-23 21:00:00 32.3 8 Este 18 Este 0 971.8 -- 34
2020-06-23 20:00:00 33.3 12 Nordeste 17 Este 0 971.3 -- 27
2020-06-23 19:00:00 32.7 11 Este 21 Este 0 971.6 -- 26
2020-06-23 18:00:00 33.9 14 Este 21 Este 0 972.1 -- 24
2020-06-23 17:00:00 33 12 Nordeste 22 Nordeste 0 972.6 -- 25
2020-06-23 16:00:00 31.8 13 Este 21 Este 0 973.3 -- 30
2020-06-23 15:00:00 30.7 11 Este 26 Este 0 973.9 -- 32
2020-06-23 14:00:00 29.3 13 Este 22 Este 0 974.6 -- 32
2020-06-23 13:00:00 27.6 9 Este 21 Este 0 975.3 -- 41
2020-06-23 12:00:00 25.9 12 Este 22 Este 0 975.8 -- 46
2020-06-23 11:00:00 23.7 10 Nordeste 17 Nordeste 0 976.3 -- 51
2020-06-23 10:00:00 21.3 0 Calma 8 Norte 0 977 -- 56
2020-06-23 09:00:00 18.4 3 Oeste 8 Sudoeste 0 977.3 -- 75
2020-06-23 08:00:00 15.6 0 Calma 8 Oeste 0 977.4 -- 82
2020-06-23 07:00:00 13.2 0 Calma 2 Sudoeste 0 977.2 -- 94
2020-06-23 06:00:00 13.6 0 Calma 5 Norte 0 977 -- 93
2020-06-23 05:00:00 15.5 5 Sudoeste 9 Sudoeste 0 976.8 -- 87
2020-06-23 04:00:00 16.7 5 Oeste 13 Oeste 0 976.9 -- 81
2020-06-23 03:00:00 18 7 Oeste 13 Sudoeste 0 977.3 -- 75
2020-06-23 02:00:00 18.6 10 Oeste 13 Oeste 0 977.7 -- 74
2020-06-23 01:00:00 18.1 5 Oeste 8 Sudoeste 0 977.9 -- 81
2020-06-23 00:00:00 19.8 0 Calma 9 Sudoeste 0 977.9 -- 76
2020-06-22 23:00:00 21.8 0 Calma 11 Sudoeste 0 977.7 -- 67
2020-06-22 22:00:00 24.6 9 Sudoeste 13 Sudoeste 0 977.1 -- 53
2020-06-22 21:00:00 29.1 5 Noroeste 11 Noroeste 0 976.8 -- 37
2020-06-22 20:00:00 30.1 4 Noroeste 18 Norte 0 976.8 -- 32
2020-06-22 19:00:00 30.7 8 Noroeste 17 Noroeste 0 976.9 -- 29
2020-06-22 18:00:00 30.7 9 Oeste 18 Sudoeste 0 977.3 -- 28
2020-06-22 17:00:00 30.4 9 Oeste 21 Oeste 0 977.9 -- 31
2020-06-22 16:00:00 29.2 9 Oeste 21 Oeste 0 979 -- 31
2020-06-22 15:00:00 28.2 10 Oeste 28 Oeste 0 980 -- 33
2020-06-22 14:00:00 26.7 8 Sudoeste 18 Oeste 0 981 -- 38
2020-06-22 13:00:00 25.1 9 Sudoeste 17 Oeste 0 981.6 -- 42
2020-06-22 12:00:00 23.7 10 Oeste 21 Oeste 0 982 -- 50
2020-06-22 11:00:00 22 12 Oeste 18 Sudoeste 0 982.6 -- 60
2020-06-22 10:00:00 20.6 13 Oeste 18 Oeste 0 983.3 -- 65
2020-06-22 09:00:00 18.8 9 Oeste 13 Sudoeste 0 983.5 -- 76
2020-06-22 08:00:00 17 6 Oeste 9 Oeste 0 983.8 -- 81
2020-06-22 07:00:00 15.1 2 Oeste 8 Oeste 0 983.7 -- 89
2020-06-22 06:00:00 16.1 4 Noroeste 13 Oeste 0 983.7 -- 83
2020-06-22 05:00:00 16.8 10 Oeste 17 Oeste 0 983.8 -- 78
2020-06-22 04:00:00 17 10 Oeste 17 Oeste 0 984.2 -- 78
2020-06-22 03:00:00 17.1 8 Oeste 15 Oeste 0 984.6 -- 76
2020-06-22 02:00:00 17.4 0 Calma 15 Oeste 0 984.9 -- 73
2020-06-22 01:00:00 18.9 11 Oeste 18 Oeste 0 985 -- 67
2020-06-22 00:00:00 19 7 Oeste 17 Oeste 0 984.9 -- 64
2020-06-21 23:00:00 20 3 Oeste 21 Noroeste 0 984.3 -- 61
2020-06-21 22:00:00 21.7 9 Noroeste 22 Noroeste 0 983.4 -- 53
2020-06-21 21:00:00 24.2 10 Noroeste 28 Norte 0 982.5 -- 44
2020-06-21 20:00:00 26.3 14 Norte 32 Norte 0 981.3 -- 39
2020-06-21 19:00:00 27.9 12 Noroeste 32 Norte 0 980.7 -- 36
2020-06-21 18:00:00 28.6 13 Noroeste 26 Norte 0 980.7 -- 33
2020-06-21 17:00:00 29.2 12 Noroeste 24 Noroeste 0 980.5 -- 32
2020-06-21 16:00:00 29 9 Noroeste 21 Norte 0 980.7 -- 34
2020-06-21 15:00:00 28.6 9 Noroeste 21 Noroeste 0 980.8 -- 36
2020-06-21 14:00:00 27.8 13 Sudoeste 30 Noroeste 0 981 -- 37
2020-06-21 13:00:00 26.4 8 Oeste 17 Sudoeste 0 981.2 -- 39
2020-06-21 12:00:00 24.8 9 Oeste 13 Sudoeste 0 981.5 -- 44
2020-06-21 11:00:00 22.7 9 Oeste 17 Oeste 0 981.6 -- 52
2020-06-21 10:00:00 20.3 8 Oeste 18 Oeste 0 981.8 -- 65
2020-06-21 09:00:00 18 12 Oeste 21 Sudoeste 0 981.8 -- 72
2020-06-21 08:00:00 16.6 9 Oeste 13 Oeste 0 981.4 -- 78
2020-06-21 07:00:00 15.2 10 Oeste 15 Oeste 0 981.2 -- 84
2020-06-21 06:00:00 15.4 9 Sudoeste 13 Sudoeste 0 980.7 -- 84
2020-06-21 05:00:00 16 7 Oeste 11 Oeste 0 980.6 -- 83
2020-06-21 04:00:00 16.4 8 Sudoeste 9 Oeste 0 980.6 -- 83
2020-06-21 03:00:00 16.2 6 Oeste 11 Oeste 0 980.6 -- 86
2020-06-21 02:00:00 17.1 0 Calma 8 Oeste 0 980.8 -- 81
2020-06-21 01:00:00 17.8 4 Sudoeste 9 Este 0 980.6 -- 76
2020-06-21 00:00:00 19.1 9 Este 17 Este 0 980.1 -- 71
2020-06-20 23:00:00 20.7 12 Este 17 Este 0 979.4 -- 64
2020-06-20 22:00:00 24.1 11 Sudeste 17 Sudeste 0 978.4 -- 50
2020-06-20 21:00:00 28 6 Noroeste 13 Noroeste 0 977.5 -- 34
2020-06-20 20:00:00 29.3 8 Norte 17 Noroeste 0 977.1 -- 30
2020-06-20 19:00:00 30 9 Oeste 18 Sudoeste 0 976.8 -- 28
2020-06-20 18:00:00 29.9 9 Oeste 30 Sudoeste 0 976.9 -- 27
2020-06-20 17:00:00 29.1 12 Sudoeste 18 Oeste 0 977.5 -- 28
2020-06-20 16:00:00 28.5 9 Oeste 21 Oeste 0 978 -- 30
2020-06-20 15:00:00 27.2 7 Oeste 15 Oeste 0 978.4 -- 31
2020-06-20 14:00:00 25.7 3 Oeste 11 Oeste 0 978.9 -- 35
2020-06-20 13:00:00 24.2 3 Oeste 9 Oeste 0 979.5 -- 35
2020-06-20 12:00:00 22.4 4 Noroeste 11 Oeste 0 979.8 -- 42
2020-06-20 11:00:00 20.8 5 Oeste 13 Oeste 0 980 -- 57
2020-06-20 10:00:00 18.3 9 Oeste 18 Oeste 0 980.1 -- 65
2020-06-20 09:00:00 16 10 Oeste 17 Sudoeste 0 980.1 -- 74
2020-06-20 08:00:00 14.6 8 Oeste 13 Oeste 0 979.8 -- 82
2020-06-20 07:00:00 13.5 9 Oeste 13 Oeste 0 979.5 -- 87
2020-06-20 06:00:00 13.9 9 Oeste 13 Sudoeste 0 979.3 -- 87
2020-06-20 05:00:00 14.3 11 Oeste 18 Sudoeste 0 979.4 -- 86
2020-06-20 04:00:00 14.6 6 Oeste 11 Oeste 0 979.4 -- 85
2020-06-20 03:00:00 15.4 5 Oeste 13 Sudoeste 0 979.6 -- 82
2020-06-20 02:00:00 15.9 5 Oeste 13 Oeste 0 979.7 -- 81
2020-06-20 01:00:00 16.9 5 Oeste 13 Oeste 0 979.6 -- 78
2020-06-20 00:00:00 17.7 4 Oeste 15 Noroeste 0 979.2 -- 74
2020-06-19 23:00:00 19.1 8 Oeste 15 Oeste 0 978.4 -- 69
2020-06-19 22:00:00 20.6 10 Nordeste 24 Nordeste 0 976.8 -- 64
2020-06-19 21:00:00 24.6 11 Norte 18 Norte 0 975.7 -- 49
2020-06-19 20:00:00 27.2 8 Noroeste 21 Noroeste 0 974.8 -- 40
2020-06-19 19:00:00 27.6 11 Oeste 21 Oeste 0 974.4 -- 32
2020-06-19 18:00:00 27.5 11 Oeste 17 Oeste 0 974.4 -- 33
2020-06-19 17:00:00 27.2 6 Sudoeste 15 Sudoeste 0 974.7 -- 34
2020-06-19 16:00:00 26.8 10 Sudoeste 15 Sudoeste 0 975 -- 35
2020-06-19 15:00:00 25.1 7 Oeste 17 Nordeste 0 975.4 -- 38
2020-06-19 14:00:00 23.9 5 Este 15 Norte 0 975.9 -- 42
2020-06-19 13:00:00 22.5 8 Oeste 18 Este 0 976.1 -- 44
2020-06-19 12:00:00 21.1 9 Este 15 Este 0 976.2 -- 49
2020-06-19 11:00:00 19.4 5 Nordeste 11 Nordeste 0 976.2 -- 53
2020-06-19 10:00:00 16.8 8 Oeste 15 Oeste 0 976.5 -- 70
2020-06-19 09:00:00 15.1 7 Oeste 13 Oeste 0 976.5 -- 78
2020-06-19 08:00:00 12.9 9 Oeste 13 Oeste 0 976.5 -- 90
2020-06-19 07:00:00 11.5 8 Oeste 11 Oeste 0 976.2 -- 95
2020-06-19 06:00:00 11.3 5 Oeste -- -- 0 975.8 -- 97
2020-06-19 05:00:00 11.4 9 Oeste 11 Oeste 0 975.5 -- 95
2020-06-19 04:00:00 11.7 7 Sudoeste 9 Sudoeste 0 975.6 -- 93
2020-06-19 03:00:00 11.8 0 Calma 5 Oeste 0 975.8 -- 92
2020-06-19 02:00:00 12.4 0 Calma 4 Norte 0 976.2 -- 90
2020-06-19 01:00:00 13.7 4 Este 15 Este 0 976.3 -- 81
2020-06-19 00:00:00 14.7 9 Este 15 Este 0 976 -- 76
2020-06-18 23:00:00 15.7 8 Este 13 Este 0 975.5 -- 73
2020-06-18 22:00:00 17.9 8 Nordeste 21 Norte 0 974.4 -- 64
2020-06-18 21:00:00 21.1 12 Nordeste 21 Nordeste 0 973.4 -- 54
2020-06-18 20:00:00 21.4 12 Nordeste 17 Nordeste 0 972.5 -- 51
2020-06-18 19:00:00 22.4 4 Norte 13 Norte 0 972.3 -- 46
2020-06-18 18:00:00 22.8 4 Norte 15 Nordeste 0 972.5 -- 44
2020-06-18 17:00:00 22.4 8 Noroeste 17 Sudoeste 0 972.7 -- 44
2020-06-18 16:00:00 22.9 6 Norte 15 Este 0 972.8 -- 42
2020-06-18 15:00:00 22.8 10 Este 18 Nordeste 0 973.1 -- 44
2020-06-18 14:00:00 21.4 9 Nordeste 17 Nordeste 0 973.5 -- 47
2020-06-18 13:00:00 20.1 7 Nordeste 17 Nordeste 0 973.9 -- 51
2020-06-18 12:00:00 18.9 6 Oeste 11 Noroeste 0 974.2 -- 53
2020-06-18 11:00:00 16.8 5 Sur 9 Sudoeste 0 974.1 -- 63
2020-06-18 10:00:00 15.6 5 Oeste 11 Oeste 0 974.2 -- 73
2020-06-18 09:00:00 14.9 0 Calma 9 Oeste 0 973.8 -- 80
2020-06-18 08:00:00 14 7 Oeste 11 Sudoeste 0 973.6 -- 83
2020-06-18 07:00:00 13.6 6 Oeste 13 Oeste 0 973.5 -- 82
2020-06-18 06:00:00 13.1 6 Sudoeste 11 Sudoeste 0 973.3 -- 86
2020-06-18 05:00:00 12.7 0 Calma 4 Sudoeste 0 973.2 -- 88
2020-06-18 04:00:00 12.3 0 Calma 9 Este 0 973.8 -- 92
2020-06-18 03:00:00 12.9 6 Este 11 Este 0 974.1 -- 89
2020-06-18 02:00:00 13.6 5 Este 9 Sudeste 0 974.6 -- 85
2020-06-18 01:00:00 15 11 Sudeste 17 Sudeste 0 974.8 -- 73
2020-06-18 00:00:00 15.6 7 Sudeste 9 Sudeste 0 975 -- 70
2020-06-17 23:00:00 16 4 Este 11 Este 0 975 -- 71
2020-06-17 22:00:00 16.5 9 Este 15 Norte 0 974.2 -- 64
2020-06-17 21:00:00 17.9 11 Norte 18 Norte 0 973.7 -- 57
2020-06-17 20:00:00 19.3 11 Noroeste 24 Norte 0 973.3 -- 51
2020-06-17 19:00:00 22 7 Noroeste 24 Norte 0 973.2 -- 43
2020-06-17 18:00:00 21.1 8 Norte 21 Norte 0 973.4 -- 46
2020-06-17 17:00:00 22.5 8 Oeste 15 Noroeste 0 973.6 -- 38
2020-06-17 16:00:00 20.7 7 Oeste 13 Oeste 0 974.2 -- 43
2020-06-17 15:00:00 20.8 8 Sudoeste 17 Norte 0 974.6 -- 48
2020-06-17 14:00:00 19.3 6 Oeste 18 Oeste 0 975.2 -- 52
2020-06-17 13:00:00 18.8 9 Oeste 17 Oeste 0 975.5 -- 55
2020-06-17 12:00:00 18.1 3 Oeste 15 Sudoeste 0 975.8 -- 59
2020-06-17 11:00:00 16.7 3 Oeste 18 Oeste 0 975.9 -- 69
2020-06-17 10:00:00 15.8 8 Oeste 15 Oeste 0 976.2 -- 77
2020-06-17 09:00:00 14.1 3 Oeste 8 Oeste 0.1 976.3 -- 93
2020-06-17 08:00:00 13.2 5 Oeste 9 Sudoeste 0 976.2 -- 95
2020-06-17 07:00:00 12.9 0 Calma 8 Oeste 0 975.7 -- 95
2020-06-17 06:00:00 13 5 Oeste 9 Oeste 0 975.5 -- 95
2020-06-17 05:00:00 13.1 2 Oeste 9 Oeste 0 975.4 -- 95
2020-06-17 04:00:00 13.4 4 Oeste 9 Sudoeste 0 975.9 -- 95
2020-06-17 03:00:00 13.5 5 Oeste 11 Oeste 0.1 976.6 -- 94
2020-06-17 02:00:00 13.7 0 Calma 8 Oeste 0 977.1 -- 92
2020-06-17 01:00:00 13.8 0 Calma 5 Oeste 0 977.4 -- 95
2020-06-17 00:00:00 14 0 Calma 11 Oeste 0.1 977.8 -- 91
2020-06-16 23:00:00 14.1 8 Oeste 11 Oeste 0 977.5 -- 88
2020-06-16 22:00:00 14.2 4 Sudoeste 9 Sudoeste 0.4 977 -- 92
2020-06-16 21:00:00 14.4 7 Oeste 15 Oeste 2.9 976.7 -- 89
2020-06-16 20:00:00 16.2 3 Oeste 13 Sudoeste 0 976 -- 85
2020-06-16 19:00:00 16.9 8 Sur 11 Sur 0.8 975.6 -- 77
2020-06-16 18:00:00 16.5 8 Sudeste 21 Sudeste 0 975.4 -- 78
2020-06-16 17:00:00 17.1 14 Noroeste 37 Noroeste 3.3 975.6 -- 72
2020-06-16 16:00:00 22.5 16 Noroeste 30 Noroeste 0 973.9 -- 45
2020-06-16 15:00:00 23 14 Oeste 24 Oeste 0 974.1 -- 42
2020-06-16 14:00:00 22.3 8 Noroeste 21 Oeste 0 974.7 -- 45
2020-06-16 13:00:00 21.9 5 Oeste 21 Oeste 0 975.6 -- 45
2020-06-16 12:00:00 21.2 7 Oeste 11 Oeste 0 976 -- 47
2020-06-16 11:00:00 19.7 3 Oeste 13 Noroeste 0 976.6 -- 56
2020-06-16 10:00:00 17.8 9 Oeste 15 Noroeste 0 977.1 -- 67
2020-06-16 09:00:00 16.1 8 Oeste 13 Oeste 0 977.2 -- 76
2020-06-16 08:00:00 14.8 7 Oeste 13 Oeste 0 977.4 -- 81
2020-06-16 07:00:00 14.5 10 Oeste 15 Oeste 0 977.2 -- 83
2020-06-16 06:00:00 14.8 5 Oeste 8 Oeste 0 977.1 -- 81
2020-06-16 05:00:00 14.6 3 Oeste 8 Oeste 0 977.3 -- 79
2020-06-16 04:00:00 14.9 0 Calma 8 Oeste 0 977.5 -- 74
2020-06-16 03:00:00 14.8 0 Calma -- -- 0 978.3 -- 75
2020-06-16 02:00:00 15.5 3 Sudeste 9 Este 0 978.4 -- 68
2020-06-16 01:00:00 15.6 9 Este 15 Nordeste 0 978.8 -- 68
2020-06-16 00:00:00 15.9 10 Este 17 Este 0 979 -- 67
2020-06-15 23:00:00 17 11 Nordeste 22 Este 0 978.6 -- 65
2020-06-15 22:00:00 18.4 9 Este 21 Este 0 977.8 -- 64
2020-06-15 21:00:00 20.1 12 Nordeste 21 Nordeste 0 977.2 -- 58
2020-06-15 20:00:00 21.9 9 Norte 18 Norte 0 977 -- 49
2020-06-15 19:00:00 22.9 13 Norte 21 Norte 0 977 -- 45
2020-06-15 18:00:00 24.4 14 Oeste 30 Oeste 0 977.4 -- 38
2020-06-15 17:00:00 24.1 15 Oeste 26 Oeste 0 977.4 -- 38
2020-06-15 16:00:00 23.7 13 Oeste 30 Oeste 0 977.8 -- 40
2020-06-15 15:00:00 23.5 14 Oeste 30 Noroeste 0 978 -- 40
2020-06-15 14:00:00 22.7 18 Oeste 30 Oeste 0 978.5 -- 43
2020-06-15 13:00:00 20.6 14 Oeste 28 Oeste 0 979 -- 52
2020-06-15 12:00:00 18.5 10 Oeste 17 Oeste 0 979.5 -- 62
2020-06-15 11:00:00 16.6 7 Oeste 11 Oeste 0 979.7 -- 69
2020-06-15 10:00:00 15.1 0 Calma 13 Oeste 0 979.9 -- 77
2020-06-15 09:00:00 15.2 8 Oeste 13 Sudoeste 0 979.7 -- 74
2020-06-15 08:00:00 13.2 4 Oeste 8 Oeste 0 979.4 -- 84
2020-06-15 07:00:00 11.5 0 Calma 5 Nordeste 0 979 -- 93
2020-06-15 06:00:00 11.6 5 Sudoeste 8 Oeste 0 979 -- 93
2020-06-15 05:00:00 12.2 4 Oeste 8 Sudoeste 0 978.8 -- 89
2020-06-15 04:00:00 12.7 0 Calma 5 Oeste 0 979 -- 87
2020-06-15 03:00:00 14 0 Calma 9 Este 0 979 -- 78
2020-06-15 02:00:00 14.1 4 Este -- -- 0 979 -- 78
2020-06-15 01:00:00 13.9 9 Este 15 Este 0 979.1 -- 77
2020-06-15 00:00:00 15.3 10 Este 17 Este 0 978.9 -- 70
2020-06-14 23:00:00 17.5 8 Este 13 Este 0 978.5 -- 63
2020-06-14 22:00:00 19 6 Este 13 Noroeste 0 977.7 -- 58
2020-06-14 21:00:00 20 6 Noroeste 21 Noroeste 0 977.2 -- 53
2020-06-14 20:00:00 21.4 12 Oeste 24 Sudoeste 0 976.7 -- 39
2020-06-14 19:00:00 21.9 13 Oeste 22 Oeste 0 976 -- 38
2020-06-14 18:00:00 23 12 Oeste 22 Noroeste 0 975.8 -- 37
2020-06-14 17:00:00 22.7 10 Oeste 21 Noroeste 0 975.8 -- 39
2020-06-14 16:00:00 23 7 Oeste 21 Oeste 0 976.1 -- 38
2020-06-14 15:00:00 22.8 12 Oeste 22 Noroeste 0 976.3 -- 41
2020-06-14 14:00:00 22.5 11 Oeste 21 Oeste 0 976.8 -- 40
2020-06-14 13:00:00 21.4 9 Oeste 18 Oeste 0 976.9 -- 44
2020-06-14 12:00:00 20.9 7 Oeste 18 Oeste 0 976.9 -- 47
2020-06-14 11:00:00 19.3 5 Oeste 13 Sudoeste 0 977 -- 57
2020-06-14 10:00:00 17.1 7 Oeste 15 Oeste 0 977.2 -- 67
2020-06-14 09:00:00 14.9 4 Oeste 9 Oeste 0 977 -- 81
2020-06-14 08:00:00 13.1 5 Oeste 13 Oeste 0 976.6 -- 88
2020-06-14 07:00:00 12.2 7 Sudoeste 11 Oeste 0 976.4 -- 93
2020-06-14 06:00:00 12.4 2 Sudoeste 8 Sudoeste 0 976.1 -- 94
2020-06-14 05:00:00 12.6 0 Calma 2 Oeste 0 975.9 -- 95
2020-06-14 04:00:00 12.6 0 Calma 9 Oeste 0 975.9 -- 93
2020-06-14 03:00:00 12.7 0 Calma 5 Oeste 0 975.9 -- 95
2020-06-14 02:00:00 13 0 Calma 9 Sudoeste 0 975.8 -- 93
2020-06-14 01:00:00 14 0 Calma 8 Nordeste 0 975.5 -- 87
2020-06-14 00:00:00 14.7 3 Oeste 5 Sudeste 0 975.2 -- 81
2020-06-13 23:00:00 15 0 Calma -- -- 0 974.6 -- 80
2020-06-13 22:00:00 17.1 3 Sudoeste 11 Oeste 0 973.7 -- 66
2020-06-13 21:00:00 20 8 Oeste 21 Oeste 0 973.3 -- 48
2020-06-13 20:00:00 20.5 9 Oeste 24 Oeste 0 972.9 -- 45
2020-06-13 19:00:00 22 9 Oeste 21 Oeste 0 972.3 -- 40
2020-06-13 18:00:00 21.8 6 Noroeste 22 Oeste 0 972.2 -- 42
2020-06-13 17:00:00 20.9 5 Oeste 35 Sudoeste 0.1 972.3 -- 45
2020-06-13 16:00:00 19.5 21 Sur 30 Sur 0 972.3 -- 50
2020-06-13 15:00:00 20.8 10 Oeste 24 Oeste 0 972.3 -- 45
2020-06-13 14:00:00 19.7 15 Oeste 30 Oeste 0 972.1 -- 47
2020-06-13 13:00:00 18.8 14 Oeste 28 Sudoeste 0 972 -- 51
2020-06-13 12:00:00 18.3 15 Oeste 30 Oeste 0 971.8 -- 55
2020-06-13 11:00:00 17.5 13 Oeste 28 Noroeste 0 971.1 -- 57
2020-06-13 10:00:00 16.1 13 Oeste 24 Noroeste 0 971 -- 66
2020-06-13 09:00:00 14.7 3 Oeste 11 Oeste 0 970.5 -- 84
2020-06-13 08:00:00 11.7 0 Calma 5 Noroeste 0 969.7 -- 97
2020-06-13 07:00:00 11 0 Calma 8 Noroeste 0 969.1 -- 100
2020-06-13 06:00:00 10.9 3 Oeste 5 Oeste 0 968.1 -- 100
2020-06-13 05:00:00 10.9 2 Norte 8 Sudoeste 0 967.6 -- 98
2020-06-13 04:00:00 10.8 0 Calma 8 Oeste 0 967.1 -- 98
2020-06-13 03:00:00 11.7 0 Calma 8 Sudoeste 0 967 -- 96
2020-06-13 02:00:00 11.6 0 Calma 5 Nordeste 0 966.8 -- 96
2020-06-13 01:00:00 11.8 0 Calma 8 Norte 0 966.6 -- 96
2020-06-13 00:00:00 12.3 7 Nordeste 11 Sudeste 0 966.3 -- 95
2020-06-12 23:00:00 12.4 7 Nordeste 11 Sudeste 0 966.1 -- 92
2020-06-12 22:00:00 13 8 Este 9 Este 0 965.2 -- 90
2020-06-12 21:00:00 13.5 0 Calma 8 Este 0 964.3 -- 88
2020-06-12 20:00:00 13.1 0 Calma 24 Oeste 0.3 964 -- 88
2020-06-12 19:00:00 13.4 14 Oeste 32 Oeste 0.7 964.2 -- 86
2020-06-12 18:00:00 15.8 11 Oeste 24 Sur 2.8 963.1 -- 78
2020-06-12 17:00:00 19.4 5 Nordeste 21 Nordeste 0 961.5 -- 48
2020-06-12 16:00:00 19.2 4 Nordeste 22 Nordeste 0 961.6 -- 53
2020-06-12 15:00:00 18.8 12 Norte 22 Norte 0 961.9 -- 58
2020-06-12 14:00:00 16.2 8 Norte 22 Norte 0 962 -- 69
2020-06-12 13:00:00 15.1 12 Norte 15 Nordeste 0 962.1 -- 75
2020-06-12 12:00:00 13.3 11 Nordeste 15 Nordeste 0 962 -- 86
2020-06-12 11:00:00 11.5 9 Este 15 Este 0 962.1 -- 91
2020-06-12 10:00:00 10.3 0 Calma 11 Este 0 962.1 -- 94
2020-06-12 09:00:00 9.4 5 Este 11 Nordeste 0 961.7 -- 95
2020-06-12 08:00:00 9.2 8 Este 13 Sudeste 0 961.3 -- 95
2020-06-12 07:00:00 7.5 8 Este 11 Este 0 961.1 -- 98
2020-06-12 06:00:00 7.8 5 Nordeste 9 Este 0 960.9 -- 98
2020-06-12 05:00:00 8 4 Nordeste 11 Este 0 960.8 -- 99
2020-06-12 04:00:00 7.6 5 Este 9 Este 0 960.7 -- 99
2020-06-12 03:00:00 8.4 5 Este 11 Este 0 961.1 -- 97
2020-06-12 02:00:00 9.8 0 Calma 8 Nordeste 0 962 -- 96
2020-06-12 01:00:00 10.1 0 Calma 8 Sudoeste 0 962.4 -- 95
2020-06-12 00:00:00 10.8 0 Calma 11 Sudoeste 0 962.8 -- 94
2020-06-11 23:00:00 10.9 7 Oeste 21 Oeste 1.9 963.2 -- 92
2020-06-11 22:00:00 11.9 2 Nordeste 9 Norte 3.9 962.1 -- 93
2020-06-11 21:00:00 12.8 6 Oeste 15 Norte 0 961.7 -- 81
2020-06-11 20:00:00 14.3 5 Oeste 9 Oeste 0 961.6 -- 82
2020-06-11 19:00:00 14.1 2 Este 24 Sudoeste 0 961.1 -- 83
2020-06-11 18:00:00 14.3 16 Oeste 28 Oeste 0.3 961.6 -- 83
2020-06-11 17:00:00 19.7 13 Nordeste 22 Nordeste 0 960.2 -- 61
2020-06-11 16:00:00 21.4 16 Este 28 Este 0 961.1 -- 51
2020-06-11 15:00:00 18.9 14 Este 18 Este 0 962.5 -- 55
2020-06-11 14:00:00 18.6 0 Calma 13 Nordeste 0 963.6 -- 54
2020-06-11 13:00:00 18.4 8 Este 15 Este 0 964 -- 55
2020-06-11 12:00:00 18 8 Este 17 Nordeste 0 964.3 -- 55
2020-06-11 11:00:00 17 5 Nordeste 13 Nordeste 0 964.8 -- 60
2020-06-11 10:00:00 16.4 0 Calma 8 Sur 0 965.4 -- 66
2020-06-11 09:00:00 14.6 0 Calma 4 Norte 0 966 -- 76
2020-06-11 08:00:00 13.5 0 Calma -- -- 0 966.5 -- 81
2020-06-11 07:00:00 12.6 0 Calma 5 Este 0 966.8 -- 88
2020-06-11 06:00:00 12.5 -- -- -- -- 0 967.1 -- 90
2020-06-11 05:00:00 12.7 5 Este 9 Este 0 967.9 -- 90
2020-06-11 04:00:00 13.8 4 Este 11 Sudeste 0 968.9 -- 78
2020-06-11 03:00:00 13.5 0 Calma -- -- 0 969.8 -- 82
2020-06-11 02:00:00 13.7 0 Calma 4 Este 0 970.8 -- 79
2020-06-11 01:00:00 14.1 0 Calma -- -- 0 971.4 -- 79
2020-06-11 00:00:00 14.3 7 Este 15 Este 0 971.8 -- 79
2020-06-10 23:00:00 14.9 9 Este 11 Este 0 972.1 -- 73
2020-06-10 22:00:00 16 10 Este 13 Este 0 972.1 -- 67
2020-06-10 21:00:00 17.6 9 Nordeste 13 Nordeste 0 972.4 -- 60
2020-06-10 20:00:00 18.5 6 Norte 17 Norte 0 972.2 -- 52
2020-06-10 19:00:00 18.7 10 Norte 18 Norte 0 972.9 -- 49
2020-06-10 18:00:00 19.1 6 Norte 21 Norte 0 972.9 -- 48
2020-06-10 17:00:00 19.7 5 Noroeste 21 Norte 0 973.3 -- 46
2020-06-10 16:00:00 20.5 12 Noroeste 22 Norte 0 973.7 -- 43
2020-06-10 15:00:00 20.1 8 Noroeste 17 Norte 0 974.3 -- 45
2020-06-10 14:00:00 20.1 7 Oeste 21 Oeste 0 974.7 -- 46
2020-06-10 13:00:00 19.4 6 Oeste 15 Oeste 0 975.3 -- 48
2020-06-10 12:00:00 18.4 7 Oeste 21 Sudoeste 0 975.9 -- 52
2020-06-10 11:00:00 16.9 6 Oeste 15 Oeste 0 976.2 -- 57
2020-06-10 10:00:00 15 9 Oeste 17 Oeste 0 976.7 -- 64
2020-06-10 09:00:00 12.7 9 Oeste 15 Oeste 0 977.1 -- 75
2020-06-10 08:00:00 11.7 7 Oeste 17 Sudoeste 0 977.1 -- 80
2020-06-10 07:00:00 11.1 12 Sudoeste 17 Sudoeste 0 977.2 -- 82
2020-06-10 06:00:00 11.3 8 Oeste 13 Oeste 0 977.1 -- 81
2020-06-10 05:00:00 11.7 6 Oeste 15 Oeste 0 977.2 -- 81
2020-06-10 04:00:00 12.6 13 Oeste 18 Sudoeste 0 977.4 -- 75
2020-06-10 03:00:00 12.6 7 Oeste 15 Oeste 0 978 -- 76
2020-06-10 02:00:00 13.5 6 Oeste 17 Sudoeste 0 978.2 -- 72
2020-06-10 01:00:00 13.9 4 Oeste 9 Oeste 0 978.2 -- 69
2020-06-10 00:00:00 14.5 6 Oeste 21 Oeste 0 978.4 -- 64